Cormoran — 2J1A6 — position and weather

sailwx.info

Track history (hours):
 
Tides and Currents Weather Stations Pressure Air Temp Water Temp Dewpoint Dewpoint Depression Visibility Wind Speed Wind Dir Waves Ship Positions

Cormoran

Last reported at 2017-Sep-26 09:16 UTC. Time now 2017-Oct-23 02:42 UTC.
Position N 36°60' E 025°14'.
Warning: this ship's position is 26 days out of date.

Length 12 m.

Type: Sailing vessel. MMSI: 235116078.

Date/timePositionNaut miles runAvg speedWind from/ knotsBaromVisibWave heightAir tempDewpointWater temp
2017-Sep-26 09:16N 36°60' E 025°14'1 5.3
2017-Sep-26 09:01N 37°01' E 025°15'3 5.3
2017-Sep-26 08:31N 37°03' E 025°17'3 5.6
2017-Sep-26 08:01N 37°05' E 025°19'3 5.1
2017-Sep-26 07:30N 37°06' E 025°22'  
2017-Sep-19 13:40N 37°23' E 024°56'1 5.9
2017-Sep-19 13:30N 37°22' E 024°55'3 5.7
2017-Sep-19 13:00N 37°21' E 024°52'3 5.7
2017-Sep-19 12:30N 37°21' E 024°48'  
Track history (hours):
 
Tides and Currents Weather Stations Pressure Air Temp Water Temp Dewpoint Dewpoint Depression Visibility Wind Speed Wind Dir Waves Ship Positions

Cormoran

Last reported at 2017-Sep-26 09:16 UTC. Time now 2017-Oct-23 02:42 UTC.
Position N 36°60' E 025°14'.
Warning: this ship's position is 26 days out of date.

Length 12 m.

Type: Sailing vessel. MMSI: 235116078.

Date/timePositionNaut miles runAvg speedWind from/ knotsBaromVisibWave heightAir tempDewpointWater temp
2017-Sep-26 09:16N 36°60' E 025°14'1 5.3
2017-Sep-26 09:01N 37°01' E 025°15'3 5.3
2017-Sep-26 08:31N 37°03' E 025°17'3 5.6
2017-Sep-26 08:01N 37°05' E 025°19'3 5.1
2017-Sep-26 07:30N 37°06' E 025°22'  
2017-Sep-19 13:40N 37°23' E 024°56'1 5.9
2017-Sep-19 13:30N 37°22' E 024°55'3 5.7
2017-Sep-19 13:00N 37°21' E 024°52'3 5.7
2017-Sep-19 12:30N 37°21' E 024°48'  

Dump ship's entire track history